Time;durP1;ratioP1;P1;durP2;ratioP2;P2;SDS_P1;SDS_P2;PMS_P1;PMS_P2;Temp;Humidity;BMP_temperature;BMP_pressure;BME280_temperature;BME280_humidity;BME280_pressure;Samples;Min_cycle;Max_cycle;Signal;HPM_P1;HPM_P2
2022/07/29 00:00:57;;;;;;;6.05;0.57;;;18.90;71.60;;;;;;5050070;28;20071;-78
2022/07/29 00:03:23;;;;;;;2.35;0.73;;;19.00;71.80;;;;;;5053377;28;20021;-79
2022/07/29 00:05:48;;;;;;;2.60;1.02;;;19.00;71.30;;;;;;5050013;28;20033;-79
2022/07/29 00:08:15;;;;;;;5.60;0.80;;;19.00;71.70;;;;;;5050398;28;20044;-79
2022/07/29 00:10:41;;;;;;;5.15;0.93;;;19.00;71.50;;;;;;5050927;28;20021;-80
2022/07/29 00:13:06;;;;;;;4.38;0.80;;;19.00;71.50;;;;;;5049944;28;20024;-79
2022/07/29 00:15:32;;;;;;;8.57;1.08;;;19.00;71.40;;;;;;5048964;28;20029;-79
2022/07/29 00:17:57;;;;;;;2.97;1.10;;;19.00;71.30;;;;;;5050859;28;20025;-82
2022/07/29 00:20:23;;;;;;;1.15;0.60;;;19.00;71.50;;;;;;5049776;28;20029;-78
2022/07/29 00:22:48;;;;;;;3.47;0.60;;;19.00;71.40;;;;;;5049372;28;20021;-77
2022/07/29 00:25:14;;;;;;;3.50;0.90;;;19.00;71.40;;;;;;5049293;28;20044;-80
2022/07/29 00:27:39;;;;;;;2.17;0.88;;;19.00;71.70;;;;;;5050615;28;20028;-80
2022/07/29 00:30:06;;;;;;;3.35;0.80;;;19.00;71.50;;;;;;5049441;28;20023;-79
2022/07/29 00:32:32;;;;;;;3.58;0.60;;;19.00;71.80;;;;;;5050367;28;20159;-79
2022/07/29 00:37:42;;;;;;;4.78;1.00;;;19.00;71.60;;;;;;5050538;28;20063;-77
2022/07/29 00:40:08;;;;;;;1.92;0.70;;;18.90;71.80;;;;;;5049267;28;20021;-81
2022/07/29 00:42:44;;;;;;;1.38;0.60;;;18.90;72.30;;;;;;5048885;28;20059;-77
2022/07/29 00:45:11;;;;;;;1.90;0.75;;;18.90;72.60;;;;;;5050336;28;20020;-77
2022/07/29 00:47:36;;;;;;;4.43;0.80;;;18.90;71.70;;;;;;5050011;28;20065;-82
2022/07/29 00:50:04;;;;;;;3.10;0.52;;;18.80;72.30;;;;;;5050316;28;20055;-81
2022/07/29 00:52:29;;;;;;;1.38;0.50;;;18.90;72.10;;;;;;5048844;28;20028;-80
2022/07/29 00:54:55;;;;;;;1.17;0.50;;;18.90;72.00;;;;;;5050332;28;20029;-79
2022/07/29 00:57:21;;;;;;;3.25;0.63;;;18.80;72.10;;;;;;5048356;28;20457;-81
2022/07/29 00:59:46;;;;;;;6.80;0.88;;;18.90;72.50;;;;;;5049080;28;20039;-80
2022/07/29 01:02:12;;;;;;;1.48;0.77;;;18.90;72.00;;;;;;5048181;28;20032;-80
2022/07/29 01:04:38;;;;;;;2.75;0.73;;;18.80;72.10;;;;;;5048255;28;20059;-81
2022/07/29 01:07:04;;;;;;;1.65;0.90;;;18.80;72.30;;;;;;5047924;28;20043;-79
2022/07/29 01:09:32;;;;;;;2.53;0.93;;;18.80;72.20;;;;;;5050591;28;20446;-79
2022/07/29 01:11:59;;;;;;;1.98;0.90;;;18.90;72.60;;;;;;5048560;28;20120;-81
2022/07/29 01:14:25;;;;;;;3.80;0.80;;;18.80;72.00;;;;;;5050245;28;20114;-78
2022/07/29 01:17:01;;;;;;;2.20;0.90;;;18.80;72.40;;;;;;5049743;28;20029;-81
2022/07/29 01:19:50;;;;;;;3.78;1.05;;;18.80;72.40;;;;;;5048820;28;20028;-78
2022/07/29 01:22:34;;;;;;;2.95;0.95;;;18.70;72.30;;;;;;5048723;28;20036;-82
2022/07/29 01:25:17;;;;;;;4.97;0.90;;;18.80;72.30;;;;;;5048260;28;20021;-80
2022/07/29 01:28:17;;;;;;;5.05;0.95;;;18.80;72.80;;;;;;5048347;28;20029;-80
2022/07/29 01:30:46;;;;;;;2.50;0.60;;;18.70;72.80;;;;;;5048536;28;20032;-79
2022/07/29 01:33:48;;;;;;;2.72;0.68;;;18.60;73.00;;;;;;5049804;28;20117;-79
2022/07/29 01:36:07;;;;;;;3.30;1.17;;;18.60;73.40;;;;;;5048953;28;20032;-78
2022/07/29 01:38:35;;;;;;;7.75;1.05;;;18.60;73.20;;;;;;5048638;28;20446;-79
2022/07/29 01:41:08;;;;;;;4.10;1.00;;;18.50;73.30;;;;;;5049328;28;20033;-79
2022/07/29 01:44:18;;;;;;;2.40;1.02;;;18.50;73.40;;;;;;5048615;28;20033;-79
2022/07/29 01:46:52;;;;;;;4.63;1.40;;;18.50;73.50;;;;;;5043152;28;20052;-79
2022/07/29 01:49:23;;;;;;;2.70;0.93;;;18.50;73.70;;;;;;5049666;28;20029;-79
2022/07/29 01:51:54;;;;;;;2.37;0.77;;;18.50;73.60;;;;;;5048337;28;20112;-79
2022/07/29 01:54:35;;;;;;;2.70;0.70;;;18.60;73.80;;;;;;5050087;28;20029;-79
2022/07/29 01:57:03;;;;;;;3.17;1.00;;;18.60;73.80;;;;;;5048960;28;20017;-79
2022/07/29 01:59:30;;;;;;;3.22;0.70;;;18.60;73.60;;;;;;5050146;28;20025;-79
2022/07/29 02:01:58;;;;;;;4.15;0.95;;;18.60;73.40;;;;;;5047852;28;20029;-82
2022/07/29 02:04:24;;;;;;;4.68;1.27;;;18.60;73.50;;;;;;5048345;28;20136;-82
2022/07/29 02:06:54;;;;;;;3.38;0.88;;;18.60;73.50;;;;;;5049324;28;20036;-79
2022/07/29 02:09:22;;;;;;;3.05;0.90;;;18.60;73.90;;;;;;5049625;28;20021;-80
2022/07/29 02:11:51;;;;;;;3.38;1.45;;;18.60;73.90;;;;;;5047974;28;20063;-79
2022/07/29 02:14:20;;;;;;;3.55;1.20;;;18.60;73.60;;;;;;5049686;28;20028;-79
2022/07/29 02:16:47;;;;;;;4.30;1.20;;;18.60;73.60;;;;;;5051387;28;20024;-79
2022/07/29 02:19:15;;;;;;;3.15;1.45;;;18.60;74.40;;;;;;5053209;28;20025;-79
2022/07/29 02:21:42;;;;;;;3.80;1.00;;;18.60;73.70;;;;;;5053030;28;20021;-79
2022/07/29 02:24:11;;;;;;;5.45;1.00;;;18.50;73.50;;;;;;5053046;28;20029;-79
2022/07/29 02:26:39;;;;;;;1.83;0.85;;;18.60;74.10;;;;;;5052308;28;20739;-82
2022/07/29 02:29:05;;;;;;;2.67;0.88;;;18.50;74.80;;;;;;5051557;28;20075;-78
2022/07/29 02:31:33;;;;;;;2.90;1.02;;;18.60;74.10;;;;;;5052494;28;20028;-80
2022/07/29 02:34:01;;;;;;;3.03;0.80;;;18.60;73.90;;;;;;5052858;28;20025;-80
2022/07/29 02:36:29;;;;;;;4.70;0.95;;;18.60;74.10;;;;;;5050767;28;20087;-78
2022/07/29 02:39:00;;;;;;;2.85;1.20;;;18.50;73.80;;;;;;5052651;28;20017;-83
2022/07/29 02:41:35;;;;;;;2.58;0.90;;;18.50;74.30;;;;;;5052609;28;20028;-79
2022/07/29 02:44:11;;;;;;;2.97;0.70;;;18.40;74.20;;;;;;5051414;28;20066;-79
2022/07/29 02:46:45;;;;;;;2.38;0.80;;;18.40;74.50;;;;;;5050836;28;20033;-80
2022/07/29 02:49:25;;;;;;;5.32;1.10;;;18.30;74.50;;;;;;5051328;28;20445;-79
2022/07/29 02:51:55;;;;;;;5.05;0.70;;;18.30;74.70;;;;;;5051287;28;20024;-83
2022/07/29 02:54:31;;;;;;;3.55;1.05;;;18.30;74.60;;;;;;5052194;28;20017;-81
2022/07/29 02:57:00;;;;;;;4.32;0.77;;;18.30;74.60;;;;;;5052022;28;20032;-78
2022/07/29 02:59:30;;;;;;;4.07;0.80;;;18.20;74.90;;;;;;5052953;28;20075;-79
2022/07/29 03:01:58;;;;;;;1.85;0.80;;;18.30;75.20;;;;;;5051412;28;20104;-79
2022/07/29 03:04:28;;;;;;;2.97;1.02;;;18.30;75.10;;;;;;5051128;28;20615;-79
2022/07/29 03:06:54;;;;;;;2.97;0.88;;;18.30;75.20;;;;;;5051727;28;20041;-79
2022/07/29 03:09:21;;;;;;;4.53;1.17;;;18.30;75.30;;;;;;5051251;28;20052;-84
2022/07/29 03:11:47;;;;;;;3.22;0.82;;;18.30;75.20;;;;;;5052410;28;20029;-80
2022/07/29 03:14:13;;;;;;;2.80;0.98;;;18.30;75.00;;;;;;5055507;28;20025;-80
2022/07/29 03:16:39;;;;;;;1.88;0.80;;;18.30;75.10;;;;;;5054694;28;20028;-79
2022/07/29 03:19:05;;;;;;;2.10;1.08;;;18.30;75.30;;;;;;5053351;28;20025;-80
2022/07/29 03:21:31;;;;;;;3.10;0.85;;;18.40;75.20;;;;;;5052366;28;20028;-79
2022/07/29 03:23:56;;;;;;;5.40;1.20;;;18.30;75.30;;;;;;5053302;28;20377;-79
2022/07/29 03:26:22;;;;;;;2.17;0.90;;;18.40;75.30;;;;;;5049424;28;20111;-78
2022/07/29 03:28:47;;;;;;;1.48;0.90;;;18.40;75.50;;;;;;5050541;28;20025;-82
2022/07/29 03:31:13;;;;;;;3.78;0.70;;;18.30;75.30;;;;;;5049963;28;20382;-82
2022/07/29 03:33:38;;;;;;;4.00;0.75;;;18.30;75.10;;;;;;5050541;28;20023;-79
2022/07/29 03:36:04;;;;;;;1.30;0.68;;;18.30;75.70;;;;;;5050913;28;20419;-81
2022/07/29 03:38:33;;;;;;;4.88;0.80;;;18.30;75.60;;;;;;5050353;28;20028;-78
2022/07/29 03:41:03;;;;;;;2.97;0.68;;;18.30;75.50;;;;;;5049516;28;20025;-81
2022/07/29 03:43:32;;;;;;;2.92;0.80;;;18.30;75.00;;;;;;5051418;28;20045;-78
2022/07/29 03:45:59;;;;;;;1.65;0.70;;;18.30;75.30;;;;;;5050373;28;20136;-79
2022/07/29 03:48:29;;;;;;;5.55;1.02;;;18.30;75.40;;;;;;5050237;28;20024;-79
2022/07/29 03:50:55;;;;;;;2.30;0.50;;;18.20;75.40;;;;;;5049587;28;20457;-80
2022/07/29 03:53:20;;;;;;;4.75;1.67;;;18.20;75.80;;;;;;5051316;28;20021;-79
2022/07/29 03:55:52;;;;;;;3.05;0.90;;;18.20;76.60;;;;;;5049251;28;20606;-80
2022/07/29 03:58:18;;;;;;;3.75;0.70;;;18.20;76.00;;;;;;5051086;28;20082;-79
2022/07/29 04:00:45;;;;;;;1.90;0.90;;;18.20;76.30;;;;;;5049242;28;20029;-78
2022/07/29 04:03:12;;;;;;;3.55;0.88;;;18.10;76.00;;;;;;5049966;28;20036;-78
2022/07/29 04:05:37;;;;;;;4.13;0.75;;;18.10;75.90;;;;;;5050843;28;20502;-83
2022/07/29 04:08:03;;;;;;;4.53;0.82;;;18.00;76.60;;;;;;5051034;28;20056;-79
2022/07/29 04:10:28;;;;;;;4.05;0.98;;;18.00;76.70;;;;;;5050245;28;20025;-83
2022/07/29 04:12:54;;;;;;;3.65;0.80;;;17.90;76.50;;;;;;5049448;28;20120;-79
2022/07/29 04:15:19;;;;;;;2.05;0.90;;;18.00;76.70;;;;;;5049324;28;20429;-80
2022/07/29 04:17:45;;;;;;;2.22;0.95;;;18.00;76.60;;;;;;5050715;28;20028;-79
2022/07/29 04:20:13;;;;;;;3.53;1.20;;;18.10;76.90;;;;;;5051138;28;20028;-79
2022/07/29 04:22:39;;;;;;;5.47;1.08;;;18.10;76.70;;;;;;5050793;28;20705;-80
2022/07/29 04:25:04;;;;;;;4.13;1.40;;;18.10;76.40;;;;;;5049301;28;20025;-78
2022/07/29 04:27:30;;;;;;;4.55;1.70;;;18.20;76.50;;;;;;5050601;28;20055;-79
2022/07/29 04:29:56;;;;;;;3.33;0.75;;;18.10;76.60;;;;;;5050652;28;20021;-79
2022/07/29 04:32:21;;;;;;;3.85;0.80;;;18.20;76.60;;;;;;5050347;28;20051;-80
2022/07/29 04:34:46;;;;;;;2.45;0.93;;;18.20;76.60;;;;;;5050617;28;20378;-79
2022/07/29 04:37:12;;;;;;;2.72;0.95;;;18.20;76.70;;;;;;5050039;28;20036;-79
2022/07/29 04:39:37;;;;;;;2.85;1.02;;;18.20;76.80;;;;;;5049982;28;20731;-82
2022/07/29 04:42:03;;;;;;;3.22;1.05;;;18.20;76.70;;;;;;5050301;28;20354;-79
2022/07/29 04:44:29;;;;;;;3.47;1.05;;;18.10;76.70;;;;;;5049289;28;20424;-81
2022/07/29 04:46:55;;;;;;;3.22;1.30;;;18.10;77.20;;;;;;5048367;28;20033;-81
2022/07/29 04:49:20;;;;;;;4.72;0.90;;;18.20;77.60;;;;;;5050312;28;20454;-82
2022/07/29 04:51:46;;;;;;;3.38;1.10;;;18.20;77.40;;;;;;5048876;28;20444;-81
2022/07/29 04:54:11;;;;;;;2.75;0.90;;;18.20;77.20;;;;;;5048862;28;20082;-81
2022/07/29 04:56:37;;;;;;;2.80;0.93;;;18.30;77.40;;;;;;5046214;28;20051;-79
2022/07/29 04:59:02;;;;;;;4.38;0.93;;;18.30;77.60;;;;;;5046502;28;20060;-79
2022/07/29 05:01:27;;;;;;;4.75;1.17;;;18.40;77.10;;;;;;5048535;28;20025;-79
2022/07/29 05:03:53;;;;;;;3.47;1.50;;;18.50;77.20;;;;;;5050201;28;20052;-84
2022/07/29 05:06:18;;;;;;;3.45;0.88;;;18.50;77.20;;;;;;5048206;28;20087;-79
2022/07/29 05:08:44;;;;;;;2.80;1.20;;;18.60;77.50;;;;;;5050393;28;20402;-80
2022/07/29 05:11:10;;;;;;;6.53;1.20;;;18.60;76.90;;;;;;5051618;28;20029;-79
2022/07/29 05:13:35;;;;;;;3.75;0.98;;;18.70;76.60;;;;;;5052103;28;20049;-81
2022/07/29 05:16:01;;;;;;;5.97;0.80;;;18.70;77.70;;;;;;5051004;28;20033;-80
2022/07/29 05:18:27;;;;;;;3.97;1.00;;;18.80;77.20;;;;;;5050498;28;20036;-84
2022/07/29 05:20:52;;;;;;;4.30;1.40;;;18.80;76.80;;;;;;5050426;28;20021;-79
2022/07/29 05:23:18;;;;;;;6.38;1.70;;;18.80;76.60;;;;;;5050913;28;20026;-82
2022/07/29 05:25:43;;;;;;;4.35;1.40;;;18.80;77.10;;;;;;5050002;28;20394;-79
2022/07/29 05:28:09;;;;;;;3.92;1.20;;;18.80;76.90;;;;;;5048752;28;20024;-84
2022/07/29 05:30:34;;;;;;;7.10;1.10;;;18.80;77.20;;;;;;5048828;28;20017;-79
2022/07/29 05:32:59;;;;;;;3.58;1.00;;;18.80;76.90;;;;;;5049749;28;20369;-80
2022/07/29 05:35:25;;;;;;;8.75;1.25;;;18.80;77.10;;;;;;5048167;28;20115;-80
2022/07/29 05:37:50;;;;;;;6.72;1.42;;;18.80;77.30;;;;;;5048657;28;20025;-80
2022/07/29 05:40:16;;;;;;;3.10;1.08;;;18.80;77.30;;;;;;5050024;28;20025;-79
2022/07/29 05:42:41;;;;;;;7.65;1.77;;;18.90;77.60;;;;;;5050452;28;20520;-80
2022/07/29 05:45:08;;;;;;;3.17;1.17;;;18.80;77.30;;;;;;5048560;28;20020;-81
2022/07/29 05:47:34;;;;;;;4.88;1.02;;;18.90;77.10;;;;;;5047986;28;20143;-79
2022/07/29 05:49:59;;;;;;;5.88;1.10;;;18.80;76.30;;;;;;5050961;28;20122;-83
2022/07/29 05:52:25;;;;;;;7.60;1.00;;;18.70;77.00;;;;;;5052271;28;20021;-80
2022/07/29 05:54:51;;;;;;;5.15;1.08;;;18.70;77.30;;;;;;5053881;28;20017;-79
2022/07/29 05:57:17;;;;;;;4.60;1.20;;;18.80;77.70;;;;;;5052988;28;20025;-79
2022/07/29 05:59:43;;;;;;;4.28;1.52;;;18.80;77.50;;;;;;5053819;28;20112;-83
2022/07/29 06:02:08;;;;;;;5.72;1.30;;;19.00;76.80;;;;;;5053353;28;20457;-81
2022/07/29 06:04:34;;;;;;;4.60;1.63;;;19.10;76.90;;;;;;5053771;28;20027;-79
2022/07/29 06:06:59;;;;;;;4.32;1.10;;;19.10;76.50;;;;;;5051503;28;20374;-81
2022/07/29 06:09:25;;;;;;;4.53;1.30;;;19.20;76.30;;;;;;5053356;28;20083;-80
2022/07/29 06:11:52;;;;;;;7.45;1.30;;;19.30;75.80;;;;;;5051871;28;20021;-81
2022/07/29 06:14:17;;;;;;;3.60;1.42;;;19.40;75.70;;;;;;5053076;28;20025;-79
2022/07/29 06:16:43;;;;;;;3.53;1.45;;;19.50;74.80;;;;;;5051448;28;20048;-79
2022/07/29 06:19:08;;;;;;;4.85;1.52;;;19.60;75.20;;;;;;5052667;28;20032;-79
2022/07/29 06:21:34;;;;;;;9.07;1.88;;;19.60;74.60;;;;;;5051760;28;20017;-79
2022/07/29 06:23:59;;;;;;;6.85;1.55;;;19.70;74.50;;;;;;5051300;28;20108;-80
2022/07/29 06:26:25;;;;;;;4.97;1.90;;;19.80;74.30;;;;;;5052727;28;20025;-79
2022/07/29 06:28:50;;;;;;;6.70;1.52;;;19.70;74.20;;;;;;5052154;28;20500;-80
2022/07/29 06:31:16;;;;;;;8.50;1.73;;;19.80;75.00;;;;;;5052862;28;20021;-79
2022/07/29 06:33:41;;;;;;;3.45;1.33;;;19.90;74.80;;;;;;5054646;28;20036;-80
2022/07/29 06:36:07;;;;;;;7.63;1.55;;;19.90;72.80;;;;;;5051047;28;20049;-79
2022/07/29 06:38:33;;;;;;;5.38;1.55;;;19.90;74.60;;;;;;5053386;28;20087;-79
2022/07/29 06:41:00;;;;;;;2.33;1.10;;;20.00;73.90;;;;;;5052569;28;20028;-78
2022/07/29 06:43:37;;;;;;;5.20;1.17;;;20.10;74.00;;;;;;5052799;28;20032;-81
2022/07/29 06:46:06;;;;;;;4.18;1.23;;;20.10;74.50;;;;;;5050619;28;20144;-78
2022/07/29 06:48:32;;;;;;;7.90;1.67;;;20.20;74.00;;;;;;5052790;28;20104;-78
2022/07/29 06:50:59;;;;;;;7.15;1.48;;;20.30;74.20;;;;;;5050875;28;20021;-78
2022/07/29 06:53:25;;;;;;;3.63;1.45;;;20.40;74.40;;;;;;5052705;28;20021;-79
2022/07/29 06:55:51;;;;;;;11.93;1.80;;;20.40;73.50;;;;;;5052094;28;20116;-78
2022/07/29 06:58:20;;;;;;;5.78;1.42;;;20.40;73.00;;;;;;5051030;28;20473;-78
2022/07/29 07:00:46;;;;;;;10.02;2.40;;;20.50;73.50;;;;;;5051838;28;20021;-80
2022/07/29 07:03:11;;;;;;;4.65;1.50;;;20.60;72.60;;;;;;5051559;28;20025;-78
2022/07/29 07:05:37;;;;;;;6.32;1.20;;;20.70;72.80;;;;;;5051721;28;20037;-78
2022/07/29 07:08:03;;;;;;;2.92;1.33;;;20.80;72.50;;;;;;5050780;28;20028;-79
2022/07/29 07:10:29;;;;;;;3.50;1.60;;;21.00;73.50;;;;;;5052313;28;20068;-78
2022/07/29 07:12:54;;;;;;;3.63;1.50;;;21.10;71.50;;;;;;5052063;28;20044;-81
2022/07/29 07:15:21;;;;;;;5.53;1.50;;;21.20;73.50;;;;;;5051013;28;20020;-78
2022/07/29 07:17:48;;;;;;;4.50;1.15;;;21.30;73.00;;;;;;5050515;28;20457;-78
2022/07/29 07:20:14;;;;;;;2.90;1.42;;;21.50;72.70;;;;;;5050757;28;20778;-80
2022/07/29 07:22:39;;;;;;;5.80;1.70;;;21.70;72.40;;;;;;5051930;28;20032;-78
2022/07/29 07:25:06;;;;;;;5.63;1.60;;;21.80;72.10;;;;;;5052237;28;20108;-81
2022/07/29 07:27:31;;;;;;;4.18;1.30;;;22.00;69.90;;;;;;5050217;28;20063;-79
2022/07/29 07:29:57;;;;;;;8.73;3.28;;;22.00;69.70;;;;;;5050439;28;20462;-81
2022/07/29 07:32:22;;;;;;;9.77;1.50;;;22.00;69.90;;;;;;5050172;28;20083;-78
2022/07/29 07:34:48;;;;;;;4.68;1.80;;;22.00;70.30;;;;;;5050567;28;20561;-79
2022/07/29 07:37:14;;;;;;;3.58;1.67;;;22.10;70.20;;;;;;5051115;28;20024;-78
2022/07/29 07:39:40;;;;;;;7.43;1.80;;;22.10;69.80;;;;;;5050437;28;20045;-79
2022/07/29 07:42:06;;;;;;;7.57;1.77;;;22.20;70.80;;;;;;5049974;28;20068;-80
2022/07/29 07:44:31;;;;;;;8.18;2.00;;;22.10;69.70;;;;;;5052419;28;20056;-82
2022/07/29 07:46:57;;;;;;;3.72;1.52;;;22.10;68.90;;;;;;5051004;28;20638;-79
2022/07/29 07:49:23;;;;;;;5.75;1.83;;;22.20;70.00;;;;;;5050164;28;20025;-82
2022/07/29 07:51:48;;;;;;;5.15;2.33;;;22.40;69.90;;;;;;5050283;28;20108;-78
2022/07/29 07:54:13;;;;;;;10.95;2.28;;;22.60;69.50;;;;;;5051626;28;20078;-83
2022/07/29 07:56:39;;;;;;;4.80;1.95;;;22.70;68.00;;;;;;5050173;28;20029;-80
2022/07/29 07:59:04;;;;;;;6.25;1.77;;;22.80;68.90;;;;;;5051544;28;20461;-81
2022/07/29 08:01:30;;;;;;;5.63;1.88;;;23.00;68.20;;;;;;5049930;28;20016;-80
2022/07/29 08:03:55;;;;;;;4.80;1.40;;;23.00;67.60;;;;;;5051582;28;20028;-83
2022/07/29 08:06:21;;;;;;;14.65;1.77;;;23.10;69.20;;;;;;5049612;28;20025;-78
2022/07/29 08:08:46;;;;;;;5.93;1.90;;;23.20;68.10;;;;;;5051569;28;20039;-78
2022/07/29 08:11:12;;;;;;;5.53;2.00;;;23.40;70.70;;;;;;5051071;28;20025;-80
2022/07/29 08:13:39;;;;;;;8.48;1.67;;;23.60;68.40;;;;;;5051153;28;20025;-79
2022/07/29 08:16:12;;;;;;;9.48;1.70;;;23.80;68.00;;;;;;5049283;28;20377;-79
2022/07/29 08:18:39;;;;;;;10.68;2.22;;;24.00;69.30;;;;;;5051639;28;20021;-79
2022/07/29 08:21:04;;;;;;;4.25;1.33;;;24.30;68.20;;;;;;5049564;28;20021;-82
2022/07/29 08:23:38;;;;;;;8.10;2.13;;;24.40;66.70;;;;;;5051749;28;20112;-79
2022/07/29 08:26:10;;;;;;;11.98;2.25;;;24.50;65.80;;;;;;5050030;28;20513;-79
2022/07/29 08:28:39;;;;;;;9.98;2.17;;;24.70;65.30;;;;;;5049885;28;20075;-83
2022/07/29 08:31:04;;;;;;;16.23;1.95;;;24.90;64.90;;;;;;5049228;28;20033;-79
2022/07/29 08:33:30;;;;;;;6.47;1.63;;;25.00;65.60;;;;;;5050991;28;20025;-81
2022/07/29 08:35:55;;;;;;;5.28;1.30;;;25.10;66.10;;;;;;5048611;28;20416;-81
2022/07/29 08:38:21;;;;;;;2.88;1.38;;;25.10;63.00;;;;;;5050956;28;20029;-79
2022/07/29 08:40:46;;;;;;;6.65;1.45;;;25.10;63.40;;;;;;5049071;28;20032;-81
2022/07/29 08:43:12;;;;;;;12.68;1.73;;;25.20;63.80;;;;;;5049246;28;20033;-78
2022/07/29 08:45:45;;;;;;;9.23;1.58;;;25.30;61.80;;;;;;5048597;28;20720;-82
2022/07/29 08:48:17;;;;;;;7.07;2.38;;;25.40;63.00;;;;;;5050751;28;20112;-79
2022/07/29 08:50:43;;;;;;;6.45;1.58;;;25.60;63.90;;;;;;5050299;28;20040;-79
2022/07/29 08:53:14;;;;;;;5.97;1.85;;;25.80;63.70;;;;;;5048855;28;20115;-79
2022/07/29 08:55:45;;;;;;;2.55;1.48;;;26.10;63.10;;;;;;5050036;28;20079;-78
2022/07/29 08:58:11;;;;;;;6.28;2.10;;;26.20;60.90;;;;;;5048863;28;20468;-80
2022/07/29 09:00:42;;;;;;;7.50;2.10;;;26.30;59.50;;;;;;5050017;28;20036;-79
2022/07/29 09:03:09;;;;;;;8.13;2.13;;;26.40;60.20;;;;;;5050030;28;20039;-79
2022/07/29 09:05:35;;;;;;;7.63;1.90;;;26.60;59.50;;;;;;5049449;28;20047;-81
2022/07/29 09:08:01;;;;;;;4.57;2.05;;;26.70;59.80;;;;;;5050067;28;20534;-80
2022/07/29 09:10:27;;;;;;;9.93;2.72;;;26.90;60.80;;;;;;5048897;28;20029;-81
2022/07/29 09:12:54;;;;;;;13.77;2.47;;;27.10;58.00;;;;;;5048689;28;20031;-80
2022/07/29 09:15:20;;;;;;;4.13;2.13;;;27.10;60.20;;;;;;5049936;28;20047;-79
2022/07/29 09:17:49;;;;;;;10.57;2.65;;;27.20;63.30;;;;;;5048486;28;20021;-79
2022/07/29 09:20:17;;;;;;;4.47;2.28;;;27.30;58.40;;;;;;5048523;28;20024;-82
2022/07/29 09:22:42;;;;;;;6.50;2.28;;;27.40;57.70;;;;;;5049910;28;20475;-79
2022/07/29 09:25:11;;;;;;;5.88;2.38;;;27.40;60.20;;;;;;5051352;28;20088;-79
2022/07/29 09:27:36;;;;;;;10.60;2.78;;;27.50;58.10;;;;;;5053784;28;20037;-81
2022/07/29 09:30:07;;;;;;;6.25;2.60;;;27.60;58.90;;;;;;5054004;28;20025;-79
2022/07/29 09:32:53;;;;;;;4.38;2.13;;;27.70;60.50;;;;;;5053700;28;20013;-80
2022/07/29 09:35:21;;;;;;;10.18;2.05;;;27.80;59.10;;;;;;5052063;28;20029;-81
2022/07/29 09:37:47;;;;;;;7.63;2.50;;;27.90;57.10;;;;;;5053753;28;20028;-79
2022/07/29 09:40:15;;;;;;;7.07;2.33;;;27.80;57.50;;;;;;5054036;28;20047;-80
2022/07/29 09:42:41;;;;;;;5.10;2.53;;;27.70;58.30;;;;;;5053937;28;20027;-80
2022/07/29 09:45:07;;;;;;;8.57;2.30;;;27.60;57.60;;;;;;5055666;28;20029;-79
2022/07/29 09:47:48;;;;;;;5.78;2.35;;;27.70;57.80;;;;;;5053088;28;20137;-80
2022/07/29 09:50:15;;;;;;;5.57;2.33;;;27.70;56.80;;;;;;5052553;28;20048;-79
2022/07/29 09:52:49;;;;;;;12.18;2.70;;;27.80;57.00;;;;;;5052264;28;20111;-79
2022/07/29 09:55:15;;;;;;;4.40;2.00;;;28.00;58.00;;;;;;5052424;28;20033;-83
2022/07/29 09:57:41;;;;;;;9.63;2.00;;;28.20;57.50;;;;;;5052052;28;20540;-84
2022/07/29 10:00:18;;;;;;;13.18;2.53;;;28.50;56.50;;;;;;5053478;28;20100;-81
2022/07/29 10:02:46;;;;;;;4.55;1.55;;;28.70;56.50;;;;;;5053086;28;20091;-81
2022/07/29 10:05:23;;;;;;;3.80;1.48;;;28.60;56.80;;;;;;5053281;28;20458;-81
2022/07/29 10:07:51;;;;;;;4.82;1.73;;;28.60;56.60;;;;;;5051813;28;20385;-82
2022/07/29 10:10:31;;;;;;;4.82;2.00;;;28.70;57.50;;;;;;5053400;28;20025;-84
2022/07/29 10:12:59;;;;;;;5.55;2.40;;;29.00;55.00;;;;;;5053305;28;20037;-81
2022/07/29 10:15:28;;;;;;;5.57;2.00;;;29.20;55.40;;;;;;5052809;28;20458;-80
2022/07/29 10:17:55;;;;;;;4.60;1.90;;;29.30;56.90;;;;;;5053108;28;20029;-81
2022/07/29 10:20:23;;;;;;;9.30;1.48;;;29.50;58.30;;;;;;5051725;28;20400;-82
2022/07/29 10:22:49;;;;;;;9.20;2.20;;;29.70;56.70;;;;;;5052943;28;20043;-82
2022/07/29 10:25:16;;;;;;;4.40;1.60;;;29.90;56.80;;;;;;5052618;28;20029;-84
2022/07/29 10:27:43;;;;;;;8.82;1.70;;;30.10;53.50;;;;;;5051766;28;20103;-81
2022/07/29 10:30:09;;;;;;;2.80;1.63;;;30.10;54.60;;;;;;5051736;28;20025;-82
2022/07/29 10:32:55;;;;;;;3.58;1.25;;;30.20;56.50;;;;;;5051364;28;20032;-81
2022/07/29 10:35:36;;;;;;;3.28;1.15;;;30.40;54.50;;;;;;5052663;28;20033;-80
2022/07/29 10:38:07;;;;;;;2.33;1.55;;;30.50;54.30;;;;;;5052877;28;20079;-81
2022/07/29 10:43:48;;;;;;;4.22;1.25;;;30.40;52.30;;;;;;5052086;28;20095;-81
2022/07/29 10:46:14;;;;;;;4.82;1.35;;;30.40;52.80;;;;;;5051917;28;20036;-82
2022/07/29 10:49:11;;;;;;;2.55;1.27;;;30.50;51.10;;;;;;5052887;28;20064;-81
2022/07/29 10:51:57;;;;;;;3.60;1.33;;;30.60;53.00;;;;;;5052456;28;20025;-82
2022/07/29 10:54:34;;;;;;;2.92;1.27;;;30.80;54.60;;;;;;5051536;28;20029;-79
2022/07/29 10:57:20;;;;;;;2.83;1.00;;;31.10;49.90;;;;;;5052086;28;20055;-82
2022/07/29 10:59:50;;;;;;;6.63;1.73;;;31.10;51.70;;;;;;5052526;28;20071;-80
2022/07/29 11:02:36;;;;;;;3.42;1.05;;;30.90;49.60;;;;;;5052016;28;20092;-82
2022/07/29 11:05:05;;;;;;;3.05;1.20;;;30.80;51.50;;;;;;5050858;28;20017;-82
2022/07/29 11:07:30;;;;;;;2.13;0.90;;;30.90;50.80;;;;;;5051939;28;20028;-83
2022/07/29 11:10:14;;;;;;;3.17;0.98;;;31.10;51.80;;;;;;5052384;28;20044;-80
2022/07/29 11:12:42;;;;;;;3.60;1.30;;;31.20;49.60;;;;;;5052064;28;20017;-82
2022/07/29 11:15:16;;;;;;;6.93;1.25;;;31.40;50.40;;;;;;5052408;28;20021;-82
2022/07/29 11:18:08;;;;;;;3.83;1.02;;;31.60;52.30;;;;;;5052538;28;20029;-82
2022/07/29 11:20:45;;;;;;;2.80;1.17;;;31.80;48.50;;;;;;5050636;28;20128;-82
2022/07/29 11:23:28;;;;;;;7.05;1.70;;;32.00;49.00;;;;;;5051737;28;20040;-81
2022/07/29 11:26:23;;;;;;;5.45;1.25;;;32.10;51.50;;;;;;5049706;28;20514;-81
2022/07/29 11:28:58;;;;;;;6.18;1.50;;;32.20;48.70;;;;;;5052425;28;20040;-83
2022/07/29 11:31:34;;;;;;;5.03;1.25;;;32.30;47.70;;;;;;5050332;28;20029;-80
2022/07/29 11:34:24;;;;;;;5.20;1.88;;;32.30;48.90;;;;;;5051664;28;20057;-83
2022/07/29 11:37:12;;;;;;;4.22;1.60;;;32.20;46.80;;;;;;5051064;28;20436;-82
2022/07/29 11:39:52;;;;;;;4.93;1.63;;;32.10;47.90;;;;;;5050515;28;20021;-83
2022/07/29 11:42:21;;;;;;;6.70;1.63;;;32.10;48.90;;;;;;5051293;28;20040;-81
2022/07/29 11:44:58;;;;;;;3.35;1.90;;;32.00;48.30;;;;;;5050503;28;20052;-83
2022/07/29 11:47:26;;;;;;;5.55;1.80;;;32.10;49.00;;;;;;5049219;28;20208;-80
2022/07/29 11:49:54;;;;;;;3.90;2.10;;;32.30;50.40;;;;;;5050317;28;20025;-80
2022/07/29 11:52:20;;;;;;;3.78;2.13;;;32.40;49.20;;;;;;5051130;28;20067;-80
2022/07/29 11:54:51;;;;;;;3.17;1.50;;;32.40;50.70;;;;;;5051582;28;20021;-82
2022/07/29 11:57:17;;;;;;;8.48;2.17;;;32.40;48.00;;;;;;5050917;28;20116;-81
2022/07/29 11:59:45;;;;;;;8.63;1.65;;;32.50;50.70;;;;;;5050275;28;20025;-81
2022/07/29 12:02:12;;;;;;;7.57;2.17;;;32.50;48.20;;;;;;5050846;28;20036;-82
2022/07/29 12:04:54;;;;;;;4.88;1.90;;;32.40;48.10;;;;;;5050061;28;20025;-82
2022/07/29 12:07:30;;;;;;;5.10;1.58;;;32.50;47.60;;;;;;5050668;28;20055;-84
2022/07/29 12:09:56;;;;;;;2.28;1.30;;;32.30;46.60;;;;;;5051109;28;20493;-82
2022/07/29 12:12:22;;;;;;;3.13;1.55;;;32.30;49.40;;;;;;5051538;28;20071;-83
2022/07/29 12:14:48;;;;;;;4.18;1.40;;;32.40;47.00;;;;;;5050106;28;20477;-81
2022/07/29 12:17:34;;;;;;;7.18;1.48;;;32.50;47.40;;;;;;5049536;28;20036;-81
2022/07/29 12:20:03;;;;;;;9.57;1.58;;;32.60;46.50;;;;;;5051099;28;20096;-83
2022/07/29 12:22:34;;;;;;;5.95;1.60;;;32.80;48.00;;;;;;5049869;28;20083;-83
2022/07/29 12:25:09;;;;;;;7.95;1.88;;;33.00;47.90;;;;;;5049861;28;20473;-83
2022/07/29 12:27:35;;;;;;;6.10;1.83;;;33.20;46.80;;;;;;5050843;28;20544;-84
2022/07/29 12:30:06;;;;;;;4.38;1.25;;;33.30;46.60;;;;;;5050875;28;20036;-81
2022/07/29 12:32:37;;;;;;;7.03;2.30;;;33.30;48.50;;;;;;5050393;28;20450;-82
2022/07/29 12:35:09;;;;;;;5.63;1.70;;;33.40;47.30;;;;;;5050756;28;20021;-84
2022/07/29 12:37:36;;;;;;;4.25;1.67;;;33.40;47.50;;;;;;5050305;28;20025;-85
2022/07/29 12:40:04;;;;;;;5.82;1.60;;;33.30;49.00;;;;;;5050552;28;20488;-83
2022/07/29 12:42:30;;;;;;;11.00;1.70;;;33.00;47.40;;;;;;5050238;28;20083;-80
2022/07/29 12:44:55;;;;;;;5.88;2.03;;;33.10;47.60;;;;;;5049158;28;20025;-81
2022/07/29 12:47:21;;;;;;;5.60;1.92;;;33.10;48.00;;;;;;5048468;28;20033;-83
2022/07/29 12:49:47;;;;;;;3.08;1.80;;;33.10;48.40;;;;;;5050920;28;20515;-82
2022/07/29 12:52:28;;;;;;;5.30;2.08;;;33.10;50.50;;;;;;5049054;28;20055;-79
2022/07/29 12:54:54;;;;;;;2.03;1.47;;;32.80;47.80;;;;;;5050908;28;20060;-80
2022/07/29 12:57:20;;;;;;;6.43;1.42;;;32.60;47.30;;;;;;5050489;28;20021;-82
2022/07/29 12:59:58;;;;;;;7.13;1.38;;;32.60;48.30;;;;;;5050408;28;20070;-79